createdAt,value
2024-03-28T00:00:38.188Z,97225.00
2024-03-28T00:03:43.219Z,97222.70
2024-03-28T00:06:33.205Z,97217.24
2024-03-28T00:09:22.578Z,97214.48
2024-03-28T00:12:12.359Z,97214.30
2024-03-28T00:15:02.447Z,97210.45
2024-03-28T00:17:52.434Z,97207.08
2024-03-28T00:20:42.106Z,97207.84
2024-03-28T00:23:31.686Z,97205.40
2024-03-28T00:26:21.260Z,97210.45
2024-03-28T00:29:10.932Z,97202.27
2024-03-28T00:32:01.126Z,97196.79
2024-03-28T00:34:51.315Z,97194.91
2024-03-28T00:37:41.201Z,97193.09
2024-03-28T00:40:31.306Z,97187.11
2024-03-28T00:43:21.787Z,97181.62
2024-03-28T00:46:12.389Z,97171.95
2024-03-28T00:49:02.374Z,97174.98
2024-03-28T00:51:52.043Z,97175.75
2024-03-28T00:54:41.721Z,97182.28
2024-03-28T00:57:31.392Z,97182.48
2024-03-28T01:00:21.383Z,97180.89
2024-03-28T01:03:11.059Z,97180.25
2024-03-28T01:06:01.186Z,97169.46
2024-03-28T01:08:51.137Z,97164.56
2024-03-28T01:11:40.922Z,97172.79
2024-03-28T01:14:32.015Z,97170.54
2024-03-28T01:17:22.105Z,97166.55
2024-03-28T01:20:12.301Z,97165.55
2024-03-28T01:23:02.667Z,97168.00
2024-03-28T01:25:52.680Z,97168.36
2024-03-28T01:28:44.613Z,97164.84
2024-03-28T01:31:33.779Z,97165.59
2024-03-28T01:34:24.374Z,97168.63
2024-03-28T01:37:14.684Z,97165.11
2024-03-28T01:40:05.142Z,97162.35
2024-03-28T01:43:04.396Z,97158.48
2024-03-28T01:45:54.255Z,97153.41
2024-03-28T01:48:45.497Z,97154.18
2024-03-28T01:51:35.032Z,97151.98
2024-03-28T01:54:24.918Z,97147.75
2024-03-28T01:57:15.172Z,97139.65
2024-03-28T02:00:05.701Z,97129.81
2024-03-28T02:03:02.424Z,97131.90
2024-03-28T02:05:52.627Z,97131.80
2024-03-28T02:08:42.000Z,97132.63
2024-03-28T02:11:32.201Z,97122.73
2024-03-28T02:14:21.879Z,97124.95
2024-03-28T02:17:11.345Z,97119.62
2024-03-28T02:20:00.709Z,97121.95
2024-03-28T02:22:50.811Z,97111.84
2024-03-28T02:25:40.174Z,97109.41
2024-03-28T02:28:35.534Z,97108.60
2024-03-28T02:31:25.188Z,97109.01
2024-03-28T02:34:16.526Z,97104.55
2024-03-28T02:37:06.150Z,97103.80
2024-03-28T02:39:56.540Z,97095.85
2024-03-28T02:42:45.913Z,97089.47
2024-03-28T02:45:35.709Z,97091.17
2024-03-28T02:48:25.686Z,97092.73
2024-03-28T02:51:15.564Z,97085.21
2024-03-28T02:54:05.234Z,97085.14
2024-03-28T02:56:54.815Z,97084.70
2024-03-28T02:59:44.795Z,97078.61
2024-03-28T03:02:34.383Z,97076.48
2024-03-28T03:05:23.953Z,97078.23
2024-03-28T03:08:13.317Z,97072.70
2024-03-28T03:11:03.623Z,97070.98
2024-03-28T03:13:53.598Z,97068.90
2024-03-28T03:16:43.278Z,97070.59
2024-03-28T03:19:32.778Z,97063.10
2024-03-28T03:22:23.549Z,97065.64
2024-03-28T03:25:14.658Z,97054.94
2024-03-28T03:28:23.497Z,97051.73
2024-03-28T03:31:32.014Z,97041.73
2024-03-28T03:34:36.530Z,97043.88
2024-03-28T03:37:27.329Z,97040.76
2024-03-28T03:40:17.136Z,97041.21
2024-03-28T03:43:06.912Z,97048.53
2024-03-28T03:45:56.978Z,97045.20
2024-03-28T03:48:47.171Z,97048.68
2024-03-28T03:51:37.060Z,97048.40
2024-03-28T03:54:26.842Z,97056.00
2024-03-28T03:57:17.234Z,97055.54
2024-03-28T04:00:11.218Z,97051.27
2024-03-28T04:03:00.771Z,97056.09
2024-03-28T04:05:51.079Z,97059.80
2024-03-28T04:08:40.545Z,97066.25
2024-03-28T04:11:30.220Z,97073.48
2024-03-28T04:14:20.522Z,97070.96
2024-03-28T04:17:10.000Z,97073.77
2024-03-28T04:19:59.668Z,97066.30
2024-03-28T04:22:49.451Z,97067.95
2024-03-28T04:25:38.925Z,97070.19
2024-03-28T04:28:28.703Z,97070.29
2024-03-28T04:31:18.594Z,97072.29
2024-03-28T04:34:08.878Z,97079.83
2024-03-28T04:36:58.854Z,97084.09
2024-03-28T04:39:49.255Z,97086.48
2024-03-28T04:42:38.831Z,97085.17
2024-03-28T04:45:28.603Z,97085.43
2024-03-28T04:48:17.872Z,97084.61
2024-03-28T04:51:08.159Z,97087.40
2024-03-28T04:53:58.047Z,97086.61
2024-03-28T04:56:48.877Z,97091.00
2024-03-28T04:59:38.628Z,97082.48
2024-03-28T05:02:28.831Z,97089.16
2024-03-28T05:05:18.504Z,97092.59
2024-03-28T05:08:08.374Z,97097.77
2024-03-28T05:10:58.256Z,97098.15
2024-03-28T05:13:47.942Z,97104.01
2024-03-28T05:16:38.626Z,97110.25
2024-03-28T05:19:28.519Z,97116.70
2024-03-28T05:22:18.097Z,97125.70
2024-03-28T05:25:08.400Z,97127.52
2024-03-28T05:27:58.172Z,97129.83
2024-03-28T05:30:48.667Z,97136.89
2024-03-28T05:33:38.762Z,97139.93
2024-03-28T05:36:28.136Z,97137.02
2024-03-28T05:39:20.873Z,97141.40
2024-03-28T05:42:10.556Z,97143.04
2024-03-28T05:45:00.017Z,97130.32
2024-03-28T05:47:49.908Z,97122.88
2024-03-28T05:50:40.093Z,97115.04
2024-03-28T05:53:29.673Z,97119.84
2024-03-28T05:56:20.269Z,97123.17
2024-03-28T05:59:10.253Z,97131.10
2024-03-28T06:02:00.200Z,97136.86
2024-03-28T06:04:50.323Z,97139.39
2024-03-28T06:07:40.270Z,97145.88
2024-03-28T06:10:29.727Z,97155.04
2024-03-28T06:13:19.574Z,97159.35
2024-03-28T06:16:10.180Z,97160.72
2024-03-28T06:19:00.347Z,97156.30
2024-03-28T06:21:50.236Z,97153.16
2024-03-28T06:24:40.314Z,97152.01
2024-03-28T06:27:30.504Z,97146.45
2024-03-28T06:30:27.047Z,97138.80
2024-03-28T06:33:16.717Z,97131.84
2024-03-28T06:36:07.675Z,97137.88
2024-03-28T06:38:57.106Z,97134.21
2024-03-28T06:41:47.399Z,97139.61
2024-03-28T06:44:37.585Z,97130.29
2024-03-28T06:47:27.270Z,97124.16
2024-03-28T06:50:17.557Z,97122.92
2024-03-28T06:53:07.235Z,97132.48
2024-03-28T06:55:57.012Z,97127.70
2024-03-28T06:58:46.385Z,97122.21
2024-03-28T07:01:36.060Z,97130.87
2024-03-28T07:04:25.950Z,97128.89
2024-03-28T07:07:15.616Z,97128.85
2024-03-28T07:10:05.713Z,97107.27
2024-03-28T07:12:56.206Z,97098.91
2024-03-28T07:15:45.882Z,97108.89
2024-03-28T07:18:35.901Z,97136.61
2024-03-28T07:21:25.855Z,97140.40
2024-03-28T07:24:16.386Z,97134.08
2024-03-28T07:27:06.429Z,97134.94
2024-03-28T07:29:56.412Z,97137.44
2024-03-28T07:32:49.882Z,97131.85
2024-03-28T07:35:39.256Z,97122.58
2024-03-28T07:38:29.032Z,97127.27
2024-03-28T07:41:19.337Z,97130.59
2024-03-28T07:44:09.619Z,97126.10
2024-03-28T07:46:59.598Z,97121.34
2024-03-28T07:49:49.173Z,97129.04
2024-03-28T07:52:38.746Z,97135.74
2024-03-28T07:55:28.121Z,97145.42
2024-03-28T07:58:17.494Z,97147.88
2024-03-28T08:01:10.167Z,97147.30
2024-03-28T08:03:59.512Z,97147.95
2024-03-28T08:06:49.292Z,97142.96
2024-03-28T08:09:38.970Z,97153.51
2024-03-28T08:12:29.456Z,97166.40
2024-03-28T08:15:19.548Z,97174.05
2024-03-28T08:18:09.270Z,97170.69
2024-03-28T08:20:58.615Z,97173.46
2024-03-28T08:23:48.782Z,97178.58
2024-03-28T08:26:41.356Z,97173.27
2024-03-28T08:29:31.311Z,97161.35
2024-03-28T08:32:21.299Z,97143.65
2024-03-28T08:35:14.981Z,97136.08
2024-03-28T08:38:05.163Z,97129.90
2024-03-28T08:40:55.043Z,97118.62
2024-03-28T08:43:49.435Z,97121.68
2024-03-28T08:46:39.736Z,97128.23
2024-03-28T08:49:29.929Z,97142.91
2024-03-28T08:52:20.510Z,97139.80
2024-03-28T08:55:12.346Z,97147.30
2024-03-28T08:58:02.024Z,97169.12
2024-03-28T09:00:53.136Z,97170.13
2024-03-28T09:03:43.847Z,97178.19
2024-03-28T09:06:33.716Z,97171.10
2024-03-28T09:09:24.819Z,97174.09
2024-03-28T09:12:13.987Z,97186.83
2024-03-28T09:15:05.207Z,97190.53
2024-03-28T09:17:54.920Z,97201.58
2024-03-28T09:20:46.938Z,97216.36
2024-03-28T09:23:36.697Z,97222.48
2024-03-28T09:26:26.569Z,97231.33
2024-03-28T09:29:21.375Z,97239.81
2024-03-28T09:32:10.948Z,97255.36
2024-03-28T09:35:01.047Z,97262.77
2024-03-28T09:37:50.608Z,97281.92
2024-03-28T09:40:47.910Z,97289.00
2024-03-28T09:43:37.436Z,97297.88
2024-03-28T09:46:29.312Z,97300.21
2024-03-28T09:49:18.938Z,97302.42
2024-03-28T09:52:08.932Z,97304.89
2024-03-28T09:54:58.806Z,97307.09
2024-03-28T09:57:48.183Z,97314.08
2024-03-28T10:00:38.651Z,97320.88
2024-03-28T10:03:31.523Z,97325.84
2024-03-28T10:06:21.815Z,97336.75
2024-03-28T10:09:13.996Z,97345.52
2024-03-28T10:12:14.096Z,97350.20
2024-03-28T10:15:05.375Z,97362.77
2024-03-28T10:18:01.871Z,97357.25
2024-03-28T10:20:57.486Z,97354.97
2024-03-28T10:23:47.329Z,97358.86
2024-03-28T10:26:37.517Z,97358.20
2024-03-28T10:29:32.460Z,97364.61
2024-03-28T10:32:23.284Z,97376.23
2024-03-28T10:35:13.209Z,97381.92
2024-03-28T10:38:09.439Z,97390.27
2024-03-28T10:41:02.188Z,97392.49
2024-03-28T10:43:51.893Z,97387.61
2024-03-28T10:46:41.547Z,97387.05
2024-03-28T10:49:37.040Z,97402.05
2024-03-28T10:52:39.441Z,97412.07
2024-03-28T10:55:36.343Z,97415.50
2024-03-28T10:58:26.163Z,97409.57
2024-03-28T11:01:17.938Z,97411.30
2024-03-28T11:04:07.045Z,97409.02
2024-03-28T11:06:57.134Z,97408.25
2024-03-28T11:09:46.715Z,97414.25
2024-03-28T11:12:37.922Z,97407.41
2024-03-28T11:15:28.119Z,97411.10
2024-03-28T11:18:17.992Z,97423.52
2024-03-28T11:21:07.668Z,97419.60
2024-03-28T11:23:58.783Z,97419.13
2024-03-28T11:26:58.502Z,97423.73
2024-03-28T11:29:48.686Z,97426.05
2024-03-28T11:32:38.292Z,97423.29
2024-03-28T11:35:27.935Z,97423.95
2024-03-28T11:38:17.511Z,97422.40
2024-03-28T11:41:07.188Z,97423.11
2024-03-28T11:43:56.867Z,97434.42
2024-03-28T11:46:46.454Z,97437.23
2024-03-28T11:49:36.180Z,97446.44
2024-03-28T11:52:26.212Z,97445.13
2024-03-28T11:55:15.786Z,97454.77
2024-03-28T11:58:10.511Z,97457.77
2024-03-28T12:01:04.246Z,97461.28
2024-03-28T12:03:53.530Z,97467.27
2024-03-28T12:06:43.813Z,97461.66
2024-03-28T12:09:33.594Z,97459.31
2024-03-28T12:12:23.583Z,97456.05
2024-03-28T12:15:13.359Z,97455.23
2024-03-28T12:18:03.595Z,97455.13
2024-03-28T12:21:02.540Z,97458.73
2024-03-28T12:23:52.118Z,97464.14
2024-03-28T12:26:42.209Z,97463.17
2024-03-28T12:29:31.987Z,97468.38
2024-03-28T12:32:21.870Z,97469.66
2024-03-28T12:35:13.139Z,97476.84
2024-03-28T12:38:04.688Z,97480.41
2024-03-28T12:40:55.721Z,97476.07
2024-03-28T12:43:56.025Z,97475.22
2024-03-28T12:46:46.336Z,97477.93
2024-03-28T12:49:36.520Z,97489.31
2024-03-28T12:52:26.165Z,97498.35
2024-03-28T12:55:18.351Z,97494.66
2024-03-28T12:58:08.640Z,97500.02
2024-03-28T13:00:58.204Z,97500.77
2024-03-28T13:03:52.789Z,97503.92
2024-03-28T13:06:53.870Z,97508.73
2024-03-28T13:09:45.563Z,97499.48
2024-03-28T13:12:35.969Z,97512.31
2024-03-28T13:49:58.521Z,97537.02
2024-03-28T13:52:47.591Z,97547.00
2024-03-28T13:55:37.593Z,97545.96
2024-03-28T13:58:27.048Z,97557.49
2024-03-28T14:01:18.056Z,97558.09
2024-03-28T14:04:08.342Z,97563.75
2024-03-28T14:06:57.615Z,97560.66
2024-03-28T14:09:49.980Z,97564.27
2024-03-28T14:12:41.384Z,97562.40
2024-03-28T14:15:31.260Z,97562.85
2024-03-28T14:18:21.037Z,97565.78
2024-03-28T14:21:11.025Z,97573.50
2024-03-28T14:24:00.801Z,97568.56
2024-03-28T14:26:50.679Z,97574.48
2024-03-28T14:29:40.464Z,97571.08
2024-03-28T14:32:31.387Z,97572.13
2024-03-28T14:35:21.253Z,97574.84
2024-03-28T14:38:11.232Z,97584.11
2024-03-28T14:41:05.734Z,97589.52
2024-03-28T14:43:55.618Z,97593.55
2024-03-28T14:46:45.210Z,97592.80
2024-03-28T14:49:34.828Z,97598.92
2024-03-28T14:52:24.941Z,97599.84
2024-03-28T14:55:15.861Z,97607.45
2024-03-28T14:58:05.326Z,97611.02
2024-03-28T15:00:55.409Z,97609.27
2024-03-28T15:03:45.907Z,97619.44
2024-03-28T15:06:35.677Z,97616.35
2024-03-28T15:09:25.366Z,97616.77
2024-03-28T15:12:15.039Z,97619.86
2024-03-28T15:15:05.128Z,97624.98
2024-03-28T15:17:54.906Z,97630.85
2024-03-28T15:20:44.382Z,97632.33
2024-03-28T15:23:34.653Z,97635.52
2024-03-28T15:26:24.964Z,97635.35
2024-03-28T15:29:15.868Z,97638.70
2024-03-28T15:32:15.160Z,97642.08
2024-03-28T15:35:06.386Z,97648.77
2024-03-28T15:37:57.502Z,97651.39
2024-03-28T15:40:47.394Z,97653.43
2024-03-28T15:43:37.367Z,97652.83
2024-03-28T15:46:27.244Z,97648.02
2024-03-28T15:49:16.829Z,97650.35
2024-03-28T15:52:06.661Z,97653.71
2024-03-28T15:54:57.105Z,97657.73
2024-03-28T15:57:46.876Z,97665.98
2024-03-28T16:00:36.595Z,97664.49
2024-03-28T16:03:26.236Z,97669.95
2024-03-28T16:06:17.492Z,97675.09
2024-03-28T16:09:08.353Z,97681.17
2024-03-28T16:11:58.641Z,97690.92
2024-03-28T16:14:48.428Z,97692.69
2024-03-28T16:17:38.404Z,97698.83
2024-03-28T16:20:28.188Z,97702.19
2024-03-28T16:23:18.512Z,97704.15
2024-03-28T16:26:08.666Z,97708.94
2024-03-28T16:29:06.743Z,97706.77
2024-03-28T16:32:01.025Z,97710.98
2024-03-28T16:34:50.829Z,97708.44
2024-03-28T16:37:40.907Z,97710.41
2024-03-28T16:40:30.281Z,97707.45
2024-03-28T16:43:19.946Z,97706.63
2024-03-28T16:46:09.823Z,97705.48
2024-03-28T16:48:59.917Z,97709.30
2024-03-28T16:51:50.104Z,97706.39
2024-03-28T16:54:39.977Z,97706.77
2024-03-28T16:57:29.365Z,97703.52
2024-03-28T17:00:19.653Z,97705.84
2024-03-28T17:03:09.324Z,97705.92
2024-03-28T17:05:59.514Z,97714.02
2024-03-28T17:08:49.506Z,97716.20
2024-03-28T17:11:39.488Z,97708.84
2024-03-28T17:14:29.268Z,97709.73
2024-03-28T17:17:20.960Z,97707.50
2024-03-28T17:20:11.491Z,97704.53
2024-03-28T17:23:01.887Z,97697.52
2024-03-28T17:25:51.965Z,97696.89
2024-03-28T17:28:41.133Z,97697.18
2024-03-28T17:31:31.115Z,97697.90
2024-03-28T17:34:21.814Z,97699.77
2024-03-28T17:37:11.801Z,97705.95
2024-03-28T17:40:01.749Z,97704.23
2024-03-28T17:42:52.540Z,97710.04
2024-03-28T17:45:42.061Z,97709.55
2024-03-28T17:48:31.742Z,97709.07
2024-03-28T17:51:21.220Z,97711.38
2024-03-28T17:54:10.989Z,97719.32
2024-03-28T17:57:00.900Z,97718.73
2024-03-28T17:59:50.246Z,97723.19
2024-03-28T18:02:40.433Z,97724.08
2024-03-28T18:05:31.860Z,97727.08
2024-03-28T18:08:22.583Z,97743.31
2024-03-28T18:11:12.434Z,97771.13
2024-03-28T18:14:02.524Z,97781.07
2024-03-28T18:16:52.131Z,97810.97
2024-03-28T18:19:41.876Z,97832.49
2024-03-28T18:22:31.868Z,97847.52
2024-03-28T18:25:21.544Z,97855.27
2024-03-28T18:28:11.420Z,97872.74
2024-03-28T18:31:06.060Z,97879.77
2024-03-28T18:33:56.719Z,97887.05
2024-03-28T18:36:47.022Z,97887.23
2024-03-28T18:39:36.995Z,97889.77
2024-03-28T18:42:27.290Z,97894.34
2024-03-28T18:45:17.061Z,97904.54
2024-03-28T18:48:07.617Z,97908.51
2024-03-28T18:50:57.240Z,97909.61
2024-03-28T18:53:47.017Z,97906.52
2024-03-28T18:56:37.015Z,97906.86
2024-03-28T18:59:26.785Z,97907.47
2024-03-28T19:02:16.260Z,97910.84
2024-03-28T19:05:05.958Z,97909.35
2024-03-28T19:07:55.404Z,97908.10
2024-03-28T19:10:45.400Z,97911.15
2024-03-28T19:13:37.316Z,97913.79
2024-03-28T19:16:27.618Z,97918.29
2024-03-28T19:19:17.702Z,97920.73
2024-03-28T19:22:07.580Z,97928.20
2024-03-28T19:24:57.468Z,97928.48
2024-03-28T19:27:51.446Z,97931.92
2024-03-28T19:30:45.239Z,97930.91
2024-03-28T19:33:36.335Z,97937.02
2024-03-28T19:36:29.390Z,97950.14
2024-03-28T19:39:19.470Z,97955.56
2024-03-28T19:42:09.048Z,97957.57
2024-03-28T19:44:59.333Z,97965.48
2024-03-28T19:47:50.638Z,97967.52
2024-03-28T19:50:40.337Z,97979.04
2024-03-28T19:53:30.218Z,97987.34
2024-03-28T19:56:20.207Z,97991.92
2024-03-28T19:59:09.769Z,97993.39
2024-03-28T20:02:00.658Z,97995.55
2024-03-28T20:05:12.266Z,97997.34
2024-03-28T20:08:05.647Z,97994.30
2024-03-28T20:10:58.180Z,97995.15
2024-03-28T20:13:47.944Z,98000.04
2024-03-28T20:16:37.748Z,98002.35
2024-03-28T20:19:27.421Z,98001.08
2024-03-28T20:22:16.790Z,98002.55
2024-03-28T20:25:07.599Z,98003.52
2024-03-28T20:27:57.266Z,98018.36
2024-03-28T20:30:47.157Z,98039.11
2024-03-28T20:33:37.234Z,98047.29
2024-03-28T20:36:26.613Z,98054.14
2024-03-28T20:39:16.590Z,98062.85
2024-03-28T20:42:06.574Z,98069.50
2024-03-28T20:44:59.024Z,98068.05
2024-03-28T20:47:48.622Z,98065.90
2024-03-28T20:50:40.469Z,98067.08
2024-03-28T20:53:30.200Z,98063.52
2024-03-28T20:56:21.448Z,98072.29
2024-03-28T20:59:11.546Z,98075.30
2024-03-28T21:02:00.772Z,98077.52
2024-03-28T21:04:50.763Z,98068.39
2024-03-28T21:07:59.071Z,98067.73
2024-03-28T21:10:49.056Z,98057.65
2024-03-28T21:13:38.421Z,98075.20
2024-03-28T21:16:28.622Z,98080.48
2024-03-28T21:19:19.519Z,98086.11
2024-03-28T21:22:12.527Z,98093.39
2024-03-28T21:25:02.257Z,98106.38
2024-03-28T21:27:51.930Z,98117.77
2024-03-28T21:30:41.400Z,98126.55
2024-03-28T21:33:30.579Z,98134.20
2024-03-28T21:36:20.556Z,98138.87
2024-03-28T21:39:11.037Z,98146.44
2024-03-28T21:42:00.935Z,98154.34
2024-03-28T21:45:06.055Z,98160.11
2024-03-28T21:48:03.235Z,98163.30
2024-03-28T21:50:53.311Z,98171.56
2024-03-28T21:53:43.404Z,98176.64
2024-03-28T21:56:34.324Z,98193.98
2024-03-28T21:59:23.789Z,98189.45
2024-03-28T22:02:14.281Z,98190.30
2024-03-28T22:05:04.358Z,98190.52
2024-03-28T22:07:54.570Z,98187.23
2024-03-28T22:10:43.830Z,98185.96
2024-03-28T22:13:33.607Z,98193.17
2024-03-28T22:16:23.590Z,98196.20
2024-03-28T22:19:13.371Z,98197.39
2024-03-28T22:22:03.248Z,98201.84
2024-03-28T22:24:59.812Z,98202.41
2024-03-28T22:27:51.204Z,98212.92
2024-03-28T22:30:41.298Z,98225.33
2024-03-28T22:33:31.279Z,98232.09
2024-03-28T22:36:21.061Z,98232.25
2024-03-28T22:39:10.628Z,98230.58
2024-03-28T22:42:00.414Z,98233.86
2024-03-28T22:44:49.878Z,98236.25
2024-03-28T22:47:40.478Z,98239.48
2024-03-28T22:50:30.167Z,98253.88
2024-03-28T22:53:21.452Z,98271.76
2024-03-28T22:56:11.315Z,98288.80
2024-03-28T22:59:01.390Z,98299.72
2024-03-28T23:01:50.911Z,98311.33
2024-03-28T23:04:40.698Z,98317.67
2024-03-28T23:07:30.284Z,98324.17
2024-03-28T23:10:19.849Z,98334.00
2024-03-28T23:13:09.529Z,98336.53
2024-03-28T23:15:58.905Z,98338.98
2024-03-28T23:18:49.086Z,98348.02
2024-03-28T23:21:39.036Z,98355.38
2024-03-28T23:24:29.153Z,98359.15
2024-03-28T23:27:19.034Z,98362.21
2024-03-28T23:30:09.567Z,98359.70
2024-03-28T23:32:59.002Z,98361.71
2024-03-28T23:35:48.785Z,98369.66
2024-03-28T23:38:38.253Z,98378.16
2024-03-28T23:41:28.552Z,98378.88
2024-03-28T23:44:18.533Z,98387.00
2024-03-28T23:47:08.111Z,98387.27
2024-03-28T23:49:59.542Z,98386.44
2024-03-28T23:52:48.995Z,98391.89
2024-03-28T23:55:48.201Z,98392.23
2024-03-28T23:58:37.881Z,98398.90
